Time;durP1;ratioP1;P1;durP2;ratioP2;P2;SDS_P1;SDS_P2;PMS_P1;PMS_P2;Temp;Humidity;BMP_temperature;BMP_pressure;BME280_temperature;BME280_humidity;BME280_pressure;Samples;Min_cycle;Max_cycle;Signal;HPM_P1;HPM_P2
2023/04/03 00:00:27;;;;;;;5.67;3.00;;;;;;;4.59;86.86;96893.53;4974795;28;21004;-66
2023/04/03 00:02:54;;;;;;;5.90;3.17;;;;;;;4.42;85.52;96890.66;4975332;28;20231;-68
2023/04/03 00:05:20;;;;;;;8.07;3.07;;;;;;;4.46;86.26;96886.84;4974536;28;20218;-66
2023/04/03 00:07:47;;;;;;;5.20;3.13;;;;;;;4.39;84.98;96883.06;4974841;28;20215;-69
2023/04/03 00:10:15;;;;;;;4.80;2.80;;;;;;;4.56;85.18;96882.56;4974759;28;20218;-67
2023/04/03 00:12:41;;;;;;;7.30;2.80;;;;;;;4.45;85.49;96882.59;4974945;28;20227;-68
2023/04/03 00:15:09;;;;;;;5.73;2.60;;;;;;;4.50;83.80;96888.25;4974212;28;20207;-66
2023/04/03 00:17:35;;;;;;;6.37;3.33;;;;;;;4.44;84.41;96892.22;4974469;28;20216;-67
2023/04/03 00:20:02;;;;;;;4.10;2.30;;;;;;;4.22;84.36;96889.63;4974542;28;20223;-69
2023/04/03 00:22:28;;;;;;;4.07;2.33;;;;;;;4.30;83.14;96891.63;4974659;28;20234;-65
2023/04/03 00:24:55;;;;;;;6.63;3.20;;;;;;;4.37;82.96;96890.22;4974129;28;20203;-69
2023/04/03 00:27:23;;;;;;;5.23;3.00;;;;;;;4.57;83.52;96887.66;4974071;28;20211;-67
2023/04/03 00:29:49;;;;;;;4.27;2.60;;;;;;;4.44;82.24;96887.00;4975086;28;20203;-66
2023/04/03 00:32:16;;;;;;;3.77;2.30;;;;;;;4.53;82.72;96880.16;4974656;28;20249;-68
2023/04/03 00:34:42;;;;;;;5.63;3.03;;;;;;;4.49;82.69;96887.44;4973688;28;20230;-66
2023/04/03 00:37:09;;;;;;;7.53;3.13;;;;;;;4.41;83.03;96886.41;4974834;28;20222;-65
2023/04/03 00:39:35;;;;;;;4.87;2.93;;;;;;;4.47;83.25;96889.34;4974649;28;20203;-67
2023/04/03 12:51:36;;;;;;;7.23;2.10;;;;;;;7.65;63.44;96921.94;5053613;27;20546;-69
2023/04/03 12:54:06;;;;;;;3.60;1.80;;;;;;;7.08;67.37;96935.16;5053369;28;20238;-68
2023/04/03 12:56:34;;;;;;;3.53;1.97;;;;;;;6.88;67.25;96933.50;5053676;28;20904;-69
2023/04/03 12:59:15;;;;;;;4.43;2.27;;;;;;;6.66;67.75;96930.31;5054252;28;20211;-69
2023/04/03 13:01:42;;;;;;;2.03;1.40;;;;;;;6.53;68.94;96927.16;5053961;28;20667;-70
2023/04/03 13:04:12;;;;;;;3.80;2.13;;;;;;;6.63;68.78;96924.53;5052608;28;20231;-70
2023/04/03 13:06:41;;;;;;;7.13;2.03;;;;;;;6.61;67.64;96929.09;5052759;28;20282;-69
2023/04/03 13:09:21;;;;;;;3.47;2.00;;;;;;;6.67;69.09;96926.75;5053880;28;20192;-69
2023/04/03 13:11:49;;;;;;;3.33;2.10;;;;;;;7.06;69.07;96925.78;5052602;28;20227;-69
2023/04/03 13:14:18;;;;;;;3.87;2.07;;;;;;;7.11;66.34;96918.31;5051797;28;20212;-69
2023/04/03 13:16:54;;;;;;;3.07;1.67;;;;;;;7.28;67.96;96914.03;5053403;28;20205;-70
2023/04/03 13:19:20;;;;;;;2.90;1.80;;;;;;;7.26;62.31;96915.94;5054110;28;20228;-69
2023/04/03 13:22:00;;;;;;;4.60;2.40;;;;;;;7.51;63.12;96917.97;5052770;28;20720;-69
2023/04/03 13:24:27;;;;;;;5.83;1.80;;;;;;;7.52;61.53;96911.78;5052230;28;20711;-68
2023/04/03 13:26:54;;;;;;;2.23;1.50;;;;;;;7.85;64.36;96915.66;5050326;28;20201;-66
2023/04/03 13:29:25;;;;;;;2.37;1.53;;;;;;;8.20;58.97;96903.53;5052379;28;20302;-67
2023/04/03 13:31:55;;;;;;;2.67;1.90;;;;;;;8.28;58.38;96903.59;5051135;28;20200;-68
2023/04/03 13:34:25;;;;;;;5.13;2.00;;;;;;;8.31;60.06;96908.56;5051478;28;20240;-70
2023/04/03 13:37:01;;;;;;;4.27;1.97;;;;;;;8.82;58.75;96907.81;5051375;28;20597;-68
2023/04/03 13:39:31;;;;;;;2.63;1.60;;;;;;;8.58;57.34;96907.56;5052301;28;20215;-69
2023/04/03 13:42:01;;;;;;;6.60;2.10;;;;;;;8.46;56.72;96899.22;5052215;28;20205;-70
2023/04/03 13:44:32;;;;;;;5.03;2.10;;;;;;;8.25;58.31;96899.47;5051704;28;20215;-70
2023/04/03 13:47:01;;;;;;;6.03;2.30;;;;;;;8.41;55.50;96891.75;5052176;28;20197;-69
2023/04/03 13:49:33;;;;;;;7.33;2.50;;;;;;;8.34;58.51;96892.50;5051823;28;20637;-69
2023/04/03 13:52:03;;;;;;;3.10;2.20;;;;;;;8.81;58.20;96897.44;5051105;28;20215;-70
2023/04/03 13:54:33;;;;;;;6.50;2.10;;;;;;;9.21;55.01;96890.72;5050151;28;20208;-69
2023/04/03 13:57:01;;;;;;;3.03;1.97;;;;;;;8.99;54.40;96883.31;5051589;28;20204;-69
2023/04/03 13:59:31;;;;;;;3.40;1.83;;;;;;;8.74;61.18;96891.94;5051481;28;20205;-70
2023/04/03 14:02:14;;;;;;;5.40;2.10;;;;;;;8.97;57.82;96892.31;5043516;28;20197;-69
2023/04/03 14:04:59;;;;;;;3.53;1.60;;;;;;;8.55;58.57;96892.09;5038119;28;20402;-70
2023/04/03 14:07:29;;;;;;;3.67;2.00;;;;;;;8.18;57.85;96894.94;5038136;28;20205;-69
2023/04/03 14:09:56;;;;;;;2.73;1.67;;;;;;;7.95;58.25;96889.22;5038644;28;20197;-69
2023/04/03 14:12:27;;;;;;;2.90;1.77;;;;;;;8.37;62.04;96893.03;5038046;28;20487;-66
2023/04/03 14:14:54;;;;;;;2.50;1.73;;;;;;;8.41;58.96;96888.31;5037660;28;20201;-69
2023/04/03 14:17:23;;;;;;;3.00;1.60;;;;;;;8.19;56.95;96896.59;5038116;28;20213;-68
2023/04/03 14:19:52;;;;;;;2.73;1.43;;;;;;;7.87;55.27;96877.81;5038335;28;20764;-67
2023/04/03 14:22:22;;;;;;;2.93;1.47;;;;;;;7.94;57.05;96886.75;5039315;28;20232;-66
2023/04/03 14:24:50;;;;;;;2.60;1.53;;;;;;;7.78;56.87;96883.09;5037755;28;20892;-67
2023/04/03 14:27:20;;;;;;;5.73;1.70;;;;;;;7.64;55.90;96887.03;5038075;28;20205;-69
2023/04/03 14:29:48;;;;;;;2.00;1.67;;;;;;;7.65;60.14;96880.81;5038617;28;20201;-69
2023/04/03 14:32:17;;;;;;;2.27;1.13;;;;;;;7.83;57.17;96889.56;5039079;28;20255;-69
2023/04/03 14:34:44;;;;;;;5.50;2.10;;;;;;;7.71;59.03;96874.97;5037195;28;20205;-68
2023/04/03 14:37:12;;;;;;;3.33;1.93;;;;;;;7.95;59.40;96880.53;5037904;28;20204;-70
2023/04/03 14:39:39;;;;;;;2.80;1.47;;;;;;;8.02;56.48;96871.13;5038452;28;20201;-68
2023/04/03 14:42:12;;;;;;;3.20;1.80;;;;;;;8.21;56.02;96878.91;5038028;28;20198;-70
2023/04/03 14:44:38;;;;;;;2.03;1.20;;;;;;;8.09;57.11;96877.41;5037187;28;20278;-68
2023/04/03 14:47:05;;;;;;;3.40;1.73;;;;;;;8.50;53.81;96873.34;5037781;28;20198;-69
2023/04/03 14:49:32;;;;;;;2.80;1.67;;;;;;;8.53;50.20;96870.41;5037601;28;20681;-69
2023/04/03 14:51:58;;;;;;;3.27;1.60;;;;;;;8.28;54.28;96866.84;5037565;28;20224;-69
2023/04/03 14:54:27;;;;;;;4.40;1.80;;;;;;;8.75;52.44;96872.56;5037340;28;20197;-69
2023/04/03 14:56:55;;;;;;;5.77;1.23;;;;;;;8.88;53.64;96859.88;5037854;28;20204;-70
2023/04/03 14:59:23;;;;;;;4.37;1.70;;;;;;;9.89;52.90;96862.53;5036940;28;20316;-70
2023/04/03 15:01:50;;;;;;;2.47;1.70;;;;;;;10.35;49.46;96854.19;5037348;28;20225;-70
2023/04/03 15:04:18;;;;;;;2.33;1.40;;;;;;;11.05;48.17;96855.25;5036869;28;20216;-70
2023/04/03 15:06:45;;;;;;;2.80;1.50;;;;;;;11.64;46.82;96852.25;5036578;28;20213;-67
2023/04/03 15:09:20;;;;;;;4.67;1.57;;;;;;;11.60;44.95;96845.66;5036765;28;20685;-70
2023/04/03 15:11:46;;;;;;;3.13;1.40;;;;;;;11.90;45.08;96851.03;5037353;28;20197;-70
2023/04/03 15:14:13;;;;;;;2.13;1.20;;;;;;;12.05;44.00;96843.22;5034279;28;20232;-67
2023/04/03 15:16:41;;;;;;;6.17;1.53;;;;;;;11.93;45.15;96844.59;5036590;28;20214;-67
2023/04/03 15:19:08;;;;;;;3.97;1.40;;;;;;;12.35;42.84;96854.63;5037289;28;20204;-69
2023/04/03 15:21:34;;;;;;;8.43;1.50;;;;;;;11.61;43.04;96842.03;5036994;28;20962;-68
2023/04/03 15:24:01;;;;;;;2.27;1.70;;;;;;;11.97;45.18;96851.97;5036252;28;20228;-70
2023/04/03 15:26:27;;;;;;;2.83;1.60;;;;;;;11.77;44.92;96868.38;5037318;28;20209;-69
2023/04/03 15:28:54;;;;;;;1.73;1.23;;;;;;;13.12;40.81;96860.63;5037277;28;20202;-68
2023/04/03 15:31:20;;;;;;;2.03;1.20;;;;;;;11.75;44.79;96859.81;5036663;28;20201;-67
2023/04/03 15:33:48;;;;;;;3.10;1.70;;;;;;;11.40;43.82;96865.44;5037020;28;20224;-70
2023/04/03 15:36:15;;;;;;;2.53;1.47;;;;;;;11.07;42.53;96863.84;5036546;28;20205;-70
2023/04/03 15:38:41;;;;;;;3.83;1.37;;;;;;;10.41;43.73;96864.06;5036175;28;20552;-67
2023/04/03 15:41:08;;;;;;;2.33;1.43;;;;;;;10.20;46.13;96868.94;5036710;28;20248;-68
2023/04/03 15:43:34;;;;;;;3.63;1.13;;;;;;;9.76;45.69;96867.41;5035722;28;20248;-69
2023/04/03 15:46:02;;;;;;;3.27;1.50;;;;;;;8.99;46.68;96879.88;5036545;28;20228;-69
2023/04/03 15:48:29;;;;;;;3.73;1.40;;;;;;;9.03;46.82;96876.75;5037076;28;20209;-69
2023/04/03 15:50:57;;;;;;;1.13;1.03;;;;;;;8.37;48.68;96869.41;5037424;28;20212;-69
2023/04/03 15:53:23;;;;;;;2.70;1.10;;;;;;;8.05;51.08;96876.88;5036954;28;20228;-69
2023/04/03 15:55:50;;;;;;;2.80;1.23;;;;;;;8.12;48.99;96882.38;5036784;28;20201;-69
2023/04/03 15:58:17;;;;;;;1.57;1.20;;;;;;;7.84;50.45;96879.91;5037049;28;20209;-69
2023/04/03 16:00:43;;;;;;;1.87;1.17;;;;;;;9.73;47.47;96872.97;5037191;28;20232;-68
2023/04/03 16:03:12;;;;;;;4.43;1.50;;;;;;;10.49;44.62;96859.63;5037158;28;20780;-70
2023/04/03 16:05:40;;;;;;;3.23;1.40;;;;;;;12.17;41.27;96855.88;5036481;28;20201;-69
2023/04/03 16:08:08;;;;;;;3.13;1.30;;;;;;;13.45;38.66;96846.91;5037088;28;20201;-70
2023/04/03 16:10:35;;;;;;;2.38;1.52;;;;;;;14.53;35.56;96849.66;5036862;28;20204;-69
2023/04/03 16:13:02;;;;;;;1.60;1.08;;;;;;;15.18;33.90;96859.16;5036769;28;20308;-69
